createdAt,value
2018-12-09T00:00:41.206Z,8.53
2018-12-09T00:03:11.023Z,7.30
2018-12-09T00:05:40.821Z,6.17
2018-12-09T00:08:10.665Z,9.17
2018-12-09T00:10:40.453Z,9.20
2018-12-09T00:13:10.178Z,6.43
2018-12-09T00:15:39.958Z,9.13
2018-12-09T00:18:09.854Z,6.60
2018-12-09T00:20:39.614Z,6.93
2018-12-09T00:23:09.447Z,7.20
2018-12-09T00:25:39.654Z,8.77
2018-12-09T00:28:11.857Z,6.57
2018-12-09T00:30:41.795Z,7.30
2018-12-09T00:33:11.560Z,6.40
2018-12-09T00:35:41.515Z,5.00
2018-12-09T00:38:11.283Z,7.63
2018-12-09T00:40:41.030Z,6.37
2018-12-09T00:43:10.790Z,5.57
2018-12-09T00:45:40.667Z,7.67
2018-12-09T00:48:10.583Z,7.93
2018-12-09T00:50:40.400Z,6.87
2018-12-09T00:53:10.518Z,6.70
2018-12-09T00:55:42.355Z,7.93
2018-12-09T00:58:14.737Z,6.27
2018-12-09T01:00:44.676Z,5.60
2018-12-09T01:03:14.635Z,7.77
2018-12-09T01:05:44.732Z,6.97
2018-12-09T01:08:14.750Z,6.07
2018-12-09T01:10:44.534Z,7.23
2018-12-09T01:13:14.807Z,5.87
2018-12-09T01:15:46.419Z,6.77
2018-12-09T01:18:16.985Z,6.13
2018-12-09T01:20:47.615Z,7.27
2018-12-09T01:23:18.223Z,6.27
2018-12-09T01:25:48.413Z,7.07
2018-12-09T01:28:18.907Z,9.37
2018-12-09T01:30:49.096Z,7.67
2018-12-09T01:33:19.867Z,8.93
2018-12-09T01:35:53.799Z,6.93
2018-12-09T01:38:25.059Z,8.03
2018-12-09T01:40:55.095Z,7.30
2018-12-09T01:43:27.631Z,7.40
2018-12-09T01:46:00.408Z,7.47
2018-12-09T01:48:30.682Z,7.27
2018-12-09T01:51:03.563Z,6.70
2018-12-09T01:54:38.850Z,5.97
2018-12-09T01:57:08.874Z,7.17
2018-12-09T01:59:39.331Z,6.50
2018-12-09T02:02:10.204Z,7.70
2018-12-09T02:04:41.770Z,9.23
2018-12-09T02:07:12.562Z,8.27
2018-12-09T02:09:44.421Z,7.57
2018-12-09T02:12:15.695Z,8.70
2018-12-09T02:14:46.648Z,9.33
2018-12-09T02:17:16.581Z,6.93
2018-12-09T02:19:46.435Z,6.27
2018-12-09T02:22:16.310Z,10.50
2018-12-09T02:24:46.128Z,9.37
2018-12-09T02:27:15.948Z,9.13
2018-12-09T02:29:45.700Z,7.53
2018-12-09T02:32:15.487Z,10.00
2018-12-09T02:34:52.702Z,9.97
2018-12-09T02:37:22.487Z,8.43
2018-12-09T02:39:52.087Z,8.23
2018-12-09T02:42:21.970Z,8.60
2018-12-09T02:44:51.703Z,8.13
2018-12-09T02:47:21.388Z,6.77
2018-12-09T02:49:51.414Z,8.33
2018-12-09T02:52:21.359Z,8.00
2018-12-09T02:54:51.281Z,9.33
2018-12-09T02:57:21.046Z,12.00
2018-12-09T02:59:50.794Z,10.20
2018-12-09T03:02:20.681Z,11.83
2018-12-09T03:04:50.689Z,9.43
2018-12-09T03:07:20.555Z,10.77
2018-12-09T03:09:50.347Z,10.50
2018-12-09T03:12:20.163Z,12.77
2018-12-09T03:14:50.051Z,10.57
2018-12-09T03:17:19.793Z,9.73
2018-12-09T03:19:49.611Z,12.53
2018-12-09T03:22:19.598Z,14.17
2018-12-09T03:24:49.434Z,13.03
2018-12-09T03:27:19.190Z,13.43
2018-12-09T03:29:49.007Z,15.23
2018-12-09T03:32:19.231Z,17.43
2018-12-09T03:34:49.407Z,14.00
2018-12-09T03:37:19.263Z,15.67
2018-12-09T03:39:49.023Z,26.43
2018-12-09T03:42:18.676Z,37.53
2018-12-09T03:44:48.719Z,31.67
2018-12-09T03:47:18.455Z,25.63
2018-12-09T03:49:48.333Z,31.27
2018-12-09T03:52:18.078Z,31.03
2018-12-09T03:54:47.753Z,31.27
2018-12-09T03:57:17.490Z,25.37
2018-12-09T03:59:47.376Z,24.67
2018-12-09T04:02:17.272Z,26.30
2018-12-09T04:04:47.231Z,22.20
2018-12-09T04:07:17.211Z,21.77
2018-12-09T04:09:46.967Z,21.97
2018-12-09T04:12:16.571Z,22.73
2018-12-09T04:14:46.402Z,19.43
2018-12-09T04:17:16.034Z,21.87
2018-12-09T04:19:45.767Z,18.53
2018-12-09T04:22:15.622Z,19.00
2018-12-09T04:24:45.401Z,18.60
2018-12-09T04:27:15.285Z,16.13
2018-12-09T04:29:45.130Z,16.37
2018-12-09T04:32:14.908Z,21.97
2018-12-09T04:34:44.665Z,18.67
2018-12-09T04:37:14.530Z,20.77
2018-12-09T04:39:44.404Z,19.83
2018-12-09T04:42:14.273Z,17.57
2018-12-09T04:44:44.016Z,24.37
2018-12-09T04:47:14.103Z,17.33
2018-12-09T04:49:43.854Z,22.37
2018-12-09T04:52:13.540Z,19.00
2018-12-09T04:54:43.333Z,20.77
2018-12-09T04:57:13.174Z,18.50
2018-12-09T04:59:48.523Z,18.20
2018-12-09T05:02:18.409Z,22.43
2018-12-09T05:04:48.131Z,17.07
2018-12-09T05:07:17.838Z,22.37
2018-12-09T05:09:47.453Z,25.87
2018-12-09T05:12:17.219Z,25.83
2018-12-09T05:14:46.963Z,27.47
2018-12-09T05:17:16.677Z,33.17
2018-12-09T05:19:46.511Z,29.40
2018-12-09T05:22:16.259Z,21.47
2018-12-09T05:24:46.185Z,22.90
2018-12-09T05:27:15.935Z,26.43
2018-12-09T05:29:46.186Z,19.53
2018-12-09T05:32:15.810Z,26.43
2018-12-09T05:34:45.631Z,23.23
2018-12-09T05:37:15.491Z,21.03
2018-12-09T05:39:45.410Z,22.47
2018-12-09T05:42:15.323Z,22.10
2018-12-09T05:44:45.010Z,19.53
2018-12-09T05:47:14.871Z,22.70
2018-12-09T05:49:44.641Z,19.57
2018-12-09T05:52:14.585Z,19.50
2018-12-09T05:54:44.249Z,17.17
2018-12-09T05:57:14.657Z,22.77
2018-12-09T05:59:44.483Z,20.93
2018-12-09T06:02:25.248Z,22.67
2018-12-09T06:04:55.113Z,25.37
2018-12-09T06:07:25.373Z,24.73
2018-12-09T06:09:55.253Z,21.63
2018-12-09T06:12:25.010Z,21.70
2018-12-09T06:14:54.793Z,25.77
2018-12-09T06:17:24.482Z,30.77
2018-12-09T06:19:54.246Z,26.97
2018-12-09T06:22:24.410Z,32.80
2018-12-09T06:24:54.065Z,26.33
2018-12-09T06:27:23.756Z,125.13
2018-12-09T06:29:53.472Z,40.37
2018-12-09T06:32:23.044Z,75.47
2018-12-09T06:34:52.800Z,39.90
2018-12-09T06:37:22.682Z,39.07
2018-12-09T06:39:52.342Z,50.87
2018-12-09T06:42:22.040Z,40.60
2018-12-09T06:44:52.081Z,152.90
2018-12-09T06:47:21.834Z,43.43
2018-12-09T06:49:51.578Z,52.47
2018-12-09T06:52:21.271Z,35.93
2018-12-09T06:54:51.073Z,31.77
2018-12-09T06:57:20.749Z,90.90
2018-12-09T06:59:50.603Z,34.67
2018-12-09T07:02:20.233Z,108.27
2018-12-09T07:04:49.956Z,35.60
2018-12-09T07:07:20.141Z,32.03
2018-12-09T07:09:49.873Z,105.47
2018-12-09T07:12:19.556Z,35.60
2018-12-09T07:14:49.193Z,31.87
2018-12-09T07:17:18.893Z,47.47
2018-12-09T07:19:48.618Z,33.77
2018-12-09T07:22:18.208Z,86.67
2018-12-09T07:24:47.825Z,64.97
2018-12-09T07:27:17.521Z,102.63
2018-12-09T07:29:47.223Z,207.97
2018-12-09T07:32:16.810Z,179.30
2018-12-09T07:34:47.585Z,103.73
2018-12-09T07:37:17.196Z,192.97
2018-12-09T07:39:46.909Z,156.17
2018-12-09T07:42:16.556Z,105.33
2018-12-09T07:44:46.213Z,69.30
2018-12-09T07:47:15.823Z,75.57
2018-12-09T07:49:45.608Z,50.13
2018-12-09T07:52:15.433Z,245.53
2018-12-09T07:54:45.073Z,104.07
2018-12-09T07:57:17.778Z,91.70
2018-12-09T07:59:47.363Z,59.67
2018-12-09T08:02:16.932Z,237.50
2018-12-09T08:04:46.762Z,46.97
2018-12-09T08:07:16.658Z,96.27
2018-12-09T08:09:46.294Z,57.80
2018-12-09T08:12:15.961Z,70.63
2018-12-09T08:14:45.593Z,44.33
2018-12-09T08:17:15.305Z,62.80
2018-12-09T08:19:46.218Z,68.80
2018-12-09T08:22:15.802Z,68.77
2018-12-09T08:24:45.444Z,120.93
2018-12-09T08:27:15.268Z,92.37
2018-12-09T08:29:44.933Z,76.23
2018-12-09T08:32:14.584Z,144.73
2018-12-09T08:34:44.308Z,124.60
2018-12-09T08:37:13.993Z,126.03
2018-12-09T08:39:43.661Z,272.27
2018-12-09T08:42:13.364Z,103.70
2018-12-09T08:44:42.983Z,70.33
2018-12-09T08:47:12.783Z,69.80
2018-12-09T08:49:42.362Z,44.73
2018-12-09T08:52:12.114Z,57.33
2018-12-09T08:54:41.858Z,44.53
2018-12-09T08:57:11.417Z,62.43
2018-12-09T08:59:41.173Z,61.27
2018-12-09T09:02:11.822Z,41.40
2018-12-09T09:04:41.532Z,42.50
2018-12-09T09:07:11.129Z,78.23
2018-12-09T09:09:40.790Z,47.13
2018-12-09T09:12:10.504Z,68.27
2018-12-09T09:14:40.128Z,42.70
2018-12-09T09:17:09.708Z,28.73
2018-12-09T09:19:39.257Z,34.57
2018-12-09T09:22:08.948Z,30.37
2018-12-09T09:24:38.547Z,29.93
2018-12-09T09:27:08.340Z,25.00
2018-12-09T09:29:37.863Z,34.77
2018-12-09T09:32:07.761Z,25.37
2018-12-09T09:34:37.440Z,26.13
2018-12-09T09:37:07.081Z,35.37
2018-12-09T09:39:36.688Z,27.73
2018-12-09T09:42:06.399Z,29.23
2018-12-09T09:44:36.125Z,30.00
2018-12-09T09:47:05.744Z,31.70
2018-12-09T09:49:35.412Z,33.23
2018-12-09T09:52:05.149Z,36.93
2018-12-09T09:54:34.769Z,41.27
2018-12-09T09:57:04.380Z,51.13
2018-12-09T09:59:34.057Z,46.40
2018-12-09T10:02:03.868Z,49.00
2018-12-09T10:04:33.510Z,49.13
2018-12-09T10:07:03.125Z,56.00
2018-12-09T10:09:32.998Z,53.33
2018-12-09T10:12:02.717Z,55.30
2018-12-09T10:14:32.516Z,58.43
2018-12-09T10:17:02.064Z,63.90
2018-12-09T10:19:31.676Z,59.40
2018-12-09T10:22:01.464Z,49.57
2018-12-09T10:24:31.292Z,46.87
2018-12-09T10:27:01.045Z,49.77
2018-12-09T10:29:30.656Z,43.80
2018-12-09T10:32:00.218Z,51.97
2018-12-09T10:34:29.872Z,44.90
2018-12-09T10:36:59.520Z,53.17
2018-12-09T10:39:29.255Z,49.57
2018-12-09T10:41:59.000Z,54.20
2018-12-09T10:44:28.665Z,44.83
2018-12-09T10:46:58.227Z,42.50
2018-12-09T10:49:27.878Z,41.70
2018-12-09T10:51:57.567Z,37.53
2018-12-09T10:54:27.204Z,33.50
2018-12-09T10:56:56.745Z,37.40
2018-12-09T10:59:26.357Z,31.87
2018-12-09T11:02:00.182Z,28.73
2018-12-09T11:04:29.721Z,30.27
2018-12-09T11:06:59.416Z,26.80
2018-12-09T11:09:29.209Z,23.70
2018-12-09T11:11:58.929Z,27.67
2018-12-09T11:14:28.608Z,27.57
2018-12-09T11:16:58.212Z,29.60
2018-12-09T11:19:27.856Z,31.43
2018-12-09T11:21:57.660Z,26.87
2018-12-09T11:24:27.405Z,33.43
2018-12-09T11:26:57.076Z,29.10
2018-12-09T11:29:26.693Z,29.03
2018-12-09T11:31:56.297Z,28.57
2018-12-09T11:34:25.917Z,25.73
2018-12-09T11:36:55.600Z,25.50
2018-12-09T11:39:25.475Z,29.33
2018-12-09T11:41:55.152Z,25.13
2018-12-09T11:44:24.760Z,25.03
2018-12-09T11:46:54.312Z,23.93
2018-12-09T11:49:24.191Z,24.03
2018-12-09T11:51:53.856Z,26.13
2018-12-09T11:54:23.489Z,25.03
2018-12-09T11:56:53.873Z,24.43
2018-12-09T11:59:23.599Z,24.13
2018-12-09T12:01:53.281Z,23.73
2018-12-09T12:04:22.889Z,23.90
2018-12-09T12:06:52.746Z,23.80
2018-12-09T12:09:22.369Z,24.17
2018-12-09T12:11:51.965Z,22.70
2018-12-09T12:14:21.675Z,21.37
2018-12-09T12:16:51.378Z,22.47
2018-12-09T12:19:20.982Z,22.70
2018-12-09T12:21:50.585Z,22.23
2018-12-09T12:24:20.948Z,22.63
2018-12-09T12:26:50.633Z,22.50
2018-12-09T12:29:20.314Z,24.03
2018-12-09T12:31:49.935Z,24.37
2018-12-09T12:34:19.601Z,22.13
2018-12-09T12:36:50.109Z,22.50
2018-12-09T12:39:20.070Z,20.83
2018-12-09T12:41:49.969Z,20.20
2018-12-09T12:44:19.621Z,20.53
2018-12-09T12:46:49.281Z,18.23
2018-12-09T12:49:19.257Z,16.30
2018-12-09T12:51:48.803Z,18.30
2018-12-09T12:54:22.912Z,16.63
2018-12-09T12:56:52.747Z,17.13
2018-12-09T12:59:22.691Z,16.00
2018-12-09T13:01:52.312Z,16.90
2018-12-09T13:04:21.853Z,16.10
2018-12-09T13:06:51.502Z,16.73
2018-12-09T13:09:21.126Z,15.97
2018-12-09T13:11:50.925Z,17.00
2018-12-09T13:14:23.141Z,16.23
2018-12-09T13:16:52.754Z,16.53
2018-12-09T13:19:22.531Z,16.27
2018-12-09T13:21:52.379Z,16.33
2018-12-09T13:24:22.233Z,16.30
2018-12-09T13:26:52.201Z,18.87
2018-12-09T13:29:21.846Z,18.10
2018-12-09T13:31:51.557Z,18.03
2018-12-09T13:34:21.190Z,19.33
2018-12-09T13:36:50.779Z,18.00
2018-12-09T13:39:20.346Z,18.67
2018-12-09T13:41:49.981Z,18.17
2018-12-09T13:44:19.701Z,18.03
2018-12-09T13:46:49.385Z,20.37
2018-12-09T13:49:19.004Z,18.57
2018-12-09T13:51:48.624Z,21.80
2018-12-09T13:54:18.411Z,21.90
2018-12-09T13:56:48.045Z,19.50
2018-12-09T13:59:17.639Z,21.03
2018-12-09T14:01:47.465Z,19.27
2018-12-09T14:04:17.128Z,18.63
2018-12-09T14:06:46.870Z,20.23
2018-12-09T14:09:16.561Z,19.73
2018-12-09T14:11:46.149Z,20.27
2018-12-09T14:14:15.701Z,18.27
2018-12-09T14:16:45.401Z,20.63
2018-12-09T14:19:15.181Z,20.17
2018-12-09T14:21:45.026Z,19.20
2018-12-09T14:24:14.698Z,20.70
2018-12-09T14:26:44.452Z,20.30
2018-12-09T14:29:14.137Z,18.57
2018-12-09T14:31:44.506Z,19.00
2018-12-09T14:34:14.192Z,17.70
2018-12-09T14:36:43.820Z,17.47
2018-12-09T14:39:13.534Z,19.80
2018-12-09T14:41:43.169Z,16.67
2018-12-09T14:44:12.838Z,18.97
2018-12-09T14:46:42.609Z,18.40
2018-12-09T14:49:12.530Z,17.97
2018-12-09T14:51:43.230Z,15.87
2018-12-09T14:54:12.989Z,18.77
2018-12-09T14:56:42.756Z,17.67
2018-12-09T14:59:12.310Z,17.47
2018-12-09T15:01:42.321Z,19.73
2018-12-09T15:04:11.929Z,18.40
2018-12-09T15:06:41.528Z,16.43
2018-12-09T15:09:11.153Z,16.43
2018-12-09T15:11:40.804Z,16.63
2018-12-09T15:14:10.552Z,16.80
2018-12-09T15:16:40.144Z,16.03
2018-12-09T15:19:09.924Z,17.17
2018-12-09T15:21:39.593Z,17.37
2018-12-09T15:24:09.361Z,17.70
2018-12-09T15:26:38.893Z,16.23
2018-12-09T15:29:08.709Z,17.93
2018-12-09T15:31:38.391Z,17.43
2018-12-09T15:34:08.216Z,18.07
2018-12-09T15:36:37.819Z,19.07
2018-12-09T15:39:08.296Z,19.53
2018-12-09T15:41:37.820Z,16.83
2018-12-09T15:44:07.437Z,18.43
2018-12-09T15:46:37.245Z,18.40
2018-12-09T15:49:07.101Z,20.00
2018-12-09T15:51:36.908Z,20.67
2018-12-09T15:54:06.803Z,18.33
2018-12-09T15:56:36.290Z,20.83
2018-12-09T15:59:05.946Z,19.57
2018-12-09T16:01:35.641Z,19.30
2018-12-09T16:04:05.229Z,20.53
2018-12-09T16:06:35.018Z,20.47
2018-12-09T16:09:06.465Z,19.50
2018-12-09T16:11:36.280Z,18.87
2018-12-09T16:14:05.872Z,18.77
2018-12-09T16:16:35.395Z,18.27
2018-12-09T16:19:05.321Z,21.57
2018-12-09T16:21:34.962Z,21.00
2018-12-09T16:24:04.587Z,23.10
2018-12-09T16:26:34.221Z,22.60
2018-12-09T16:29:03.973Z,23.03
2018-12-09T16:31:33.750Z,27.20
2018-12-09T16:34:03.669Z,20.40
2018-12-09T16:36:33.290Z,23.80
2018-12-09T16:39:02.873Z,23.40
2018-12-09T16:41:32.526Z,23.80
2018-12-09T16:44:02.315Z,19.17
2018-12-09T16:46:32.102Z,19.17
2018-12-09T16:49:01.757Z,19.87
2018-12-09T16:51:31.465Z,22.83
2018-12-09T16:54:01.246Z,21.60
2018-12-09T16:56:31.093Z,18.83
2018-12-09T16:59:00.884Z,20.33
2018-12-09T17:01:30.601Z,16.73
2018-12-09T17:04:00.228Z,14.93
2018-12-09T17:06:29.801Z,17.57
2018-12-09T17:08:59.588Z,16.97
2018-12-09T17:11:29.228Z,17.90
2018-12-09T17:13:58.929Z,17.17
2018-12-09T17:16:28.817Z,17.23
2018-12-09T17:18:58.497Z,17.37
2018-12-09T17:21:28.289Z,17.07
2018-12-09T17:23:58.124Z,16.23
2018-12-09T17:26:27.694Z,17.07
2018-12-09T17:29:05.226Z,13.77
2018-12-09T17:31:28.969Z,16.33
2018-12-09T17:33:58.669Z,17.50
2018-12-09T17:36:29.498Z,15.93
2018-12-09T17:38:59.116Z,19.33
2018-12-09T17:41:28.853Z,18.50
2018-12-09T17:43:58.385Z,17.70
2018-12-09T17:46:28.028Z,11.97
2018-12-09T17:48:57.737Z,10.90
2018-12-09T17:51:27.482Z,13.83
2018-12-09T17:53:57.130Z,12.80
2018-12-09T17:56:27.002Z,13.13
2018-12-09T17:58:56.841Z,13.20
2018-12-09T18:01:26.642Z,11.47
2018-12-09T18:03:56.285Z,14.00
2018-12-09T18:06:25.927Z,13.57
2018-12-09T18:08:55.518Z,11.83
2018-12-09T18:11:25.135Z,14.60
2018-12-09T18:13:54.894Z,13.53
2018-12-09T18:16:24.556Z,11.67
2018-12-09T18:18:54.439Z,12.20
2018-12-09T18:21:24.265Z,13.10
2018-12-09T18:23:53.961Z,14.07
2018-12-09T18:26:23.614Z,14.77
2018-12-09T18:28:53.418Z,23.53
2018-12-09T18:31:23.513Z,20.33
2018-12-09T18:33:53.692Z,25.30
2018-12-09T18:36:23.300Z,20.57
2018-12-09T18:38:53.047Z,20.77
2018-12-09T18:41:22.825Z,18.70
2018-12-09T18:43:52.895Z,18.27
2018-12-09T18:46:22.627Z,15.07
2018-12-09T18:48:52.429Z,13.03
2018-12-09T18:51:22.089Z,15.33
2018-12-09T18:53:51.876Z,11.67
2018-12-09T18:56:21.525Z,10.10
2018-12-09T18:58:51.208Z,8.17
2018-12-09T19:01:20.906Z,8.77
2018-12-09T19:03:50.646Z,6.17
2018-12-09T19:06:20.367Z,7.40
2018-12-09T19:08:49.965Z,8.43
2018-12-09T19:11:19.967Z,7.43
2018-12-09T19:13:49.671Z,8.33
2018-12-09T19:16:19.398Z,7.23
2018-12-09T19:18:49.185Z,7.57
2018-12-09T19:21:18.828Z,5.63
2018-12-09T19:23:48.696Z,8.23
2018-12-09T19:26:18.341Z,9.83
2018-12-09T19:28:48.017Z,7.40
2018-12-09T19:31:17.760Z,7.30
2018-12-09T19:33:47.643Z,6.60
2018-12-09T19:36:17.348Z,6.10
2018-12-09T19:38:47.202Z,5.30
2018-12-09T19:41:17.117Z,4.43
2018-12-09T19:43:46.828Z,4.93
2018-12-09T19:46:16.734Z,4.53
2018-12-09T19:48:46.354Z,7.77
2018-12-09T19:51:16.256Z,4.03
2018-12-09T19:53:46.258Z,6.60
2018-12-09T19:56:16.168Z,4.77
2018-12-09T19:58:45.986Z,4.07
2018-12-09T20:01:15.676Z,3.93
2018-12-09T20:03:45.479Z,4.47
2018-12-09T20:06:15.128Z,4.97
2018-12-09T20:08:44.965Z,5.30
2018-12-09T20:11:14.966Z,5.37
2018-12-09T20:13:45.224Z,5.27
2018-12-09T20:16:15.082Z,5.43
2018-12-09T20:18:44.952Z,6.17
2018-12-09T20:21:14.602Z,8.27
2018-12-09T20:23:44.400Z,7.10
2018-12-09T20:26:14.329Z,6.90
2018-12-09T20:28:44.022Z,7.10
2018-12-09T20:31:13.818Z,6.07
2018-12-09T20:33:43.576Z,7.37
2018-12-09T20:36:13.251Z,10.00
2018-12-09T20:38:42.869Z,8.17
2018-12-09T20:41:12.577Z,8.83
2018-12-09T20:43:42.685Z,6.00
2018-12-09T20:46:12.305Z,8.63
2018-12-09T20:48:41.905Z,7.43
2018-12-09T20:51:11.711Z,7.43
2018-12-09T20:53:41.524Z,6.37
2018-12-09T20:56:11.227Z,7.13
2018-12-09T20:58:40.809Z,6.80
2018-12-09T21:01:10.461Z,8.37
2018-12-09T21:03:40.135Z,7.03
2018-12-09T21:06:09.742Z,7.87
2018-12-09T21:08:39.393Z,7.27
2018-12-09T21:11:09.087Z,8.43
2018-12-09T21:13:38.702Z,7.87
2018-12-09T21:16:08.576Z,8.03
2018-12-09T21:18:38.294Z,5.83
2018-12-09T21:21:08.394Z,5.63
2018-12-09T21:23:38.057Z,6.77
2018-12-09T21:26:07.645Z,8.30
2018-12-09T21:28:37.273Z,7.00
2018-12-09T21:31:07.057Z,9.67
2018-12-09T21:33:36.653Z,7.20
2018-12-09T21:36:06.182Z,11.60
2018-12-09T21:38:35.776Z,9.10
2018-12-09T21:41:05.563Z,8.03
2018-12-09T21:43:35.118Z,6.70
2018-12-09T21:46:04.804Z,8.60
2018-12-09T21:48:34.685Z,7.03
2018-12-09T21:51:04.434Z,7.70
2018-12-09T21:53:34.122Z,9.60
2018-12-09T21:56:03.761Z,8.10
2018-12-09T21:58:33.372Z,7.63
2018-12-09T22:01:02.999Z,8.80
2018-12-09T22:03:32.842Z,7.27
2018-12-09T22:06:02.497Z,6.97
2018-12-09T22:08:32.194Z,6.13
2018-12-09T22:11:01.832Z,5.73
2018-12-09T22:13:31.614Z,8.87
2018-12-09T22:16:01.187Z,4.90
2018-12-09T22:18:30.789Z,3.40
2018-12-09T22:21:00.743Z,4.73
2018-12-09T22:23:30.378Z,4.37
2018-12-09T22:26:00.017Z,6.13
2018-12-09T22:28:29.573Z,6.03
2018-12-09T22:30:59.260Z,6.03
2018-12-09T22:33:28.886Z,4.23
2018-12-09T22:35:58.688Z,5.07
2018-12-09T22:38:28.298Z,5.47
2018-12-09T22:40:57.913Z,3.30
2018-12-09T22:43:27.525Z,5.30
2018-12-09T22:45:57.232Z,3.93
2018-12-09T22:48:26.888Z,3.57
2018-12-09T22:50:56.430Z,6.20
2018-12-09T22:53:26.052Z,6.70
2018-12-09T22:55:55.811Z,4.03
2018-12-09T22:58:25.417Z,6.27
2018-12-09T23:01:00.224Z,5.87
2018-12-09T23:03:29.899Z,4.17
2018-12-09T23:05:59.591Z,4.33
2018-12-09T23:08:29.548Z,4.67
2018-12-09T23:10:59.236Z,5.07
2018-12-09T23:13:28.847Z,4.23
2018-12-09T23:15:58.538Z,3.40
2018-12-09T23:18:28.157Z,5.07
2018-12-09T23:20:57.733Z,4.83
2018-12-09T23:23:27.442Z,5.17
2018-12-09T23:25:57.241Z,5.43
2018-12-09T23:28:26.974Z,3.73
2018-12-09T23:30:56.548Z,4.20
2018-12-09T23:33:26.209Z,2.80
2018-12-09T23:35:55.897Z,3.97
2018-12-09T23:38:25.630Z,3.77
2018-12-09T23:40:55.322Z,3.33
2018-12-09T23:43:24.936Z,3.40
2018-12-09T23:45:54.572Z,2.63
2018-12-09T23:48:24.259Z,3.63
2018-12-09T23:50:53.926Z,3.10
2018-12-09T23:53:23.431Z,5.33
2018-12-09T23:55:53.035Z,2.87
2018-12-09T23:58:22.676Z,4.90
